Clinton, Montana
Current Conditions -  °F | °C
As of 4:53 PM on Wednesday 26 Nov 2014 (Local Time) from KMSO Reporting Station
Overcast Overcast  
Wind Chill: 33°   Ceiling: 4600
Heat Index: 33°   Visibility: 8mi
Dew Point: 33°   Wind: 3mph
Humidity: 100%   Direction: 330°NNW
Pressure: 30.17"   Gusts: NA
Location:  46.77°N, 113.72°W
Report Text: KMSO 262353Z 33003KT 8SM OVC046 01/01 A3017 RMK AO2 SLP244 60001 T00060006 10017 20000 58003
Loading
Personal Weather Stations






























Interactive Weather Map New forecast layout! Learn more

10-Day Weather Forecast

Advertisements
Track Severe Weather on mobile